Time;durP1;ratioP1;P1;durP2;ratioP2;P2;SDS_P1;SDS_P2;PMS_P1;PMS_P2;Temp;Humidity;BMP_temperature;BMP_pressure;BME280_temperature;BME280_humidity;BME280_pressure;Samples;Min_cycle;Max_cycle;Signal;HPM_P1;HPM_P2
2024/03/12 00:00:53;;;;;;;66.50;44.20;;;;;;;9.77;100.00;99537.20;182676;1237;46107;-83
2024/03/12 00:05:19;;;;;;;63.80;46.40;;;;;;;9.81;100.00;99538.06;182525;1235;59852;-84
2024/03/12 00:09:22;;;;;;;64.50;45.90;;;;;;;9.83;100.00;99535.41;182458;1235;46061;-85
2024/03/12 00:13:26;;;;;;;69.70;46.10;;;;;;;9.80;100.00;99538.98;182525;1234;45996;-85
2024/03/12 00:17:28;;;;;;;65.80;44.30;;;;;;;9.81;100.00;99541.45;182594;1235;46116;-84
2024/03/12 00:21:30;;;;;;;59.90;45.70;;;;;;;9.74;100.00;99543.32;182527;1239;45973;-83
2024/03/12 00:25:33;;;;;;;72.60;47.00;;;;;;;9.68;100.00;99540.96;182562;1235;57851;-84
2024/03/12 00:29:35;;;;;;;61.30;40.70;;;;;;;9.60;100.00;99542.58;182734;1237;45954;-84
2024/03/12 00:33:36;;;;;;;67.80;44.70;;;;;;;9.54;100.00;99543.94;182211;1236;45947;-83
2024/03/12 00:37:39;;;;;;;64.10;41.30;;;;;;;9.41;100.00;99542.35;182649;1238;45996;-84
2024/03/12 00:41:41;;;;;;;54.50;37.40;;;;;;;9.26;100.00;99545.42;182482;1237;46098;-83
2024/03/12 00:45:44;;;;;;;55.70;41.20;;;;;;;9.20;100.00;99546.67;182917;1234;59161;-85
2024/03/12 00:49:46;;;;;;;62.10;42.20;;;;;;;9.20;100.00;99546.95;182578;1237;45171;-84
2024/03/12 00:53:48;;;;;;;60.00;43.50;;;;;;;9.26;100.00;99555.28;182495;1236;46018;-84
2024/03/12 00:57:50;;;;;;;62.00;43.20;;;;;;;9.34;100.00;99549.86;182324;1235;46005;-82
2024/03/12 01:01:52;;;;;;;60.70;41.70;;;;;;;9.21;100.00;99545.62;182677;1235;46088;-84
2024/03/12 01:05:54;;;;;;;62.20;44.10;;;;;;;9.05;100.00;99543.87;182365;1235;58122;-84
2024/03/12 01:09:56;;;;;;;58.80;45.00;;;;;;;8.97;100.00;99550.07;182238;1235;46213;-83
2024/03/12 01:13:58;;;;;;;62.70;43.80;;;;;;;8.93;100.00;99548.29;182485;1234;45960;-83
2024/03/12 01:18:00;;;;;;;66.20;41.50;;;;;;;8.92;100.00;99549.60;182684;1235;46016;-84
2024/03/12 01:22:04;;;;;;;64.90;45.80;;;;;;;8.86;100.00;99553.46;182569;1234;46091;-84
2024/03/12 01:26:07;;;;;;;62.90;45.40;;;;;;;8.79;100.00;99554.42;182414;1237;58232;-83
2024/03/12 01:30:17;;;;;;;65.30;45.50;;;;;;;8.73;100.00;99544.85;182724;1235;46072;-84
2024/03/12 01:34:22;;;;;;;68.40;48.20;;;;;;;8.65;100.00;99543.17;182503;1238;45905;-84
2024/03/12 01:38:24;;;;;;;78.60;50.20;;;;;;;8.58;100.00;99539.89;182532;1234;46132;-84
2024/03/12 01:42:26;;;;;;;67.70;50.40;;;;;;;8.62;100.00;99541.20;182285;1235;46154;-82
2024/03/12 01:46:34;;;;;;;72.50;47.40;;;;;;;8.62;100.00;99540.30;182397;1235;60023;-84
2024/03/12 01:50:36;;;;;;;72.30;49.40;;;;;;;8.54;100.00;99539.88;182478;1237;46010;-83
2024/03/12 01:54:38;;;;;;;69.20;48.50;;;;;;;8.53;100.00;99534.56;182436;1234;45996;-84
2024/03/12 01:58:40;;;;;;;71.90;53.60;;;;;;;8.49;100.00;99535.41;182296;1237;45979;-84
2024/03/12 02:02:43;;;;;;;81.10;56.30;;;;;;;8.48;100.00;99530.71;182541;1235;46098;-83
2024/03/12 02:06:46;;;;;;;78.40;53.90;;;;;;;8.48;100.00;99524.34;182375;1236;57649;-84
2024/03/12 02:10:48;;;;;;;69.90;50.00;;;;;;;8.53;100.00;99520.56;182416;1237;46207;-83
2024/03/12 02:14:49;;;;;;;73.70;52.20;;;;;;;8.63;100.00;99524.47;182471;1237;46187;-83
2024/03/12 02:18:51;;;;;;;73.40;50.30;;;;;;;8.74;100.00;99531.19;182407;1235;44599;-83
2024/03/12 02:22:55;;;;;;;79.60;52.30;;;;;;;8.86;100.00;99544.60;182816;1239;46174;-83
2024/03/12 02:26:57;;;;;;;90.80;54.60;;;;;;;8.98;100.00;99554.87;182537;1235;59231;-82
2024/03/12 02:30:59;;;;;;;109.70;52.20;;;;;;;9.07;100.00;99562.44;182526;1235;46099;-83
2024/03/12 02:35:01;;;;;;;69.20;50.40;;;;;;;9.17;100.00;99567.76;182471;1235;46100;-83
2024/03/12 02:39:04;;;;;;;84.00;51.30;;;;;;;9.23;100.00;99571.46;182372;1235;46067;-84
2024/03/12 02:43:06;;;;;;;81.10;50.90;;;;;;;9.27;100.00;99570.45;182445;1237;46002;-83
2024/03/12 02:47:09;;;;;;;78.30;51.80;;;;;;;9.29;100.00;99572.55;182404;1235;59360;-83
2024/03/12 02:51:11;;;;;;;96.50;55.40;;;;;;;9.25;100.00;99574.30;182949;1235;44044;-83
2024/03/12 02:55:13;;;;;;;81.10;55.40;;;;;;;9.26;100.00;99564.29;182825;1235;46465;-83
2024/03/12 02:59:14;;;;;;;94.70;56.00;;;;;;;9.34;100.00;99571.61;182612;1235;45982;-83
2024/03/12 03:03:16;;;;;;;75.80;51.90;;;;;;;9.38;100.00;99569.29;182340;1235;46205;-82
2024/03/12 03:07:18;;;;;;;86.20;52.50;;;;;;;9.42;100.00;99571.55;182317;1238;59294;-83
2024/03/12 03:11:19;;;;;;;89.30;53.90;;;;;;;9.40;100.00;99576.88;182685;1234;46036;-83
2024/03/12 03:15:22;;;;;;;82.00;50.10;;;;;;;9.36;100.00;99574.75;182265;1235;46078;-84
2024/03/12 03:19:24;;;;;;;79.20;49.10;;;;;;;9.33;100.00;99571.84;182596;1237;45881;-83
2024/03/12 03:23:26;;;;;;;75.20;49.30;;;;;;;9.32;100.00;99573.03;182526;1234;45992;-83
2024/03/12 03:27:27;;;;;;;114.00;54.60;;;;;;;9.27;100.00;99577.11;182271;1235;58339;-82
2024/03/12 03:31:29;;;;;;;89.60;52.90;;;;;;;9.28;100.00;99583.39;182456;1236;46110;-83
2024/03/12 03:35:31;;;;;;;92.10;55.00;;;;;;;9.32;100.00;99584.88;182866;1235;46088;-83
2024/03/12 03:39:35;;;;;;;88.90;58.20;;;;;;;9.34;100.00;99587.23;182565;1234;45885;-83
2024/03/12 03:43:37;;;;;;;85.50;57.10;;;;;;;9.27;100.00;99592.22;182296;1235;45982;-83
2024/03/12 03:47:40;;;;;;;95.90;52.90;;;;;;;9.17;100.00;99589.22;182509;1237;59507;-83
2024/03/12 03:51:41;;;;;;;93.60;58.30;;;;;;;9.08;100.00;99590.16;182666;1235;45982;-83
2024/03/12 03:55:43;;;;;;;79.80;57.50;;;;;;;9.07;100.00;99595.83;182669;1234;44769;-83
2024/03/12 03:59:46;;;;;;;90.70;59.90;;;;;;;9.06;100.00;99597.19;182663;1235;46209;-82
2024/03/12 04:03:48;;;;;;;90.90;59.20;;;;;;;9.05;100.00;99602.23;182464;1237;46097;-84
2024/03/12 04:07:49;;;;;;;93.40;57.60;;;;;;;9.03;100.00;99606.13;182342;1235;57874;-84
2024/03/12 04:11:51;;;;;;;91.70;61.30;;;;;;;9.07;100.00;99610.91;182661;1234;46068;-84
2024/03/12 04:15:55;;;;;;;101.30;59.30;;;;;;;9.09;100.00;99613.95;182570;1235;46091;-84
2024/03/12 04:19:56;;;;;;;94.00;62.20;;;;;;;9.08;100.00;99619.67;182809;1234;46267;-87
2024/03/12 04:23:58;;;;;;;87.40;57.00;;;;;;;9.02;100.00;99619.81;183008;1234;46772;-85
2024/03/12 04:28:00;;;;;;;100.60;59.70;;;;;;;8.98;100.00;99622.83;184626;1234;59834;-87
2024/03/12 04:32:02;;;;;;;91.30;62.20;;;;;;;8.99;100.00;99630.83;185952;1234;43977;-86
2024/03/12 04:36:06;;;;;;;83.00;57.60;;;;;;;9.02;100.00;99632.38;185387;1234;43995;-86
2024/03/12 04:40:08;;;;;;;89.40;57.60;;;;;;;9.04;100.00;99636.97;184659;1235;43909;-86
2024/03/12 04:44:10;;;;;;;88.70;58.20;;;;;;;9.06;100.00;99642.13;183441;1233;46029;-86
2024/03/12 04:48:11;;;;;;;86.30;54.50;;;;;;;9.09;100.00;99641.86;183194;1238;57948;-85
2024/03/12 04:52:15;;;;;;;95.50;62.40;;;;;;;9.07;100.00;99647.15;183196;1233;45975;-86
2024/03/12 04:56:17;;;;;;;87.30;55.50;;;;;;;9.03;100.00;99651.80;184164;1236;45986;-84
2024/03/12 05:00:19;;;;;;;80.10;58.00;;;;;;;8.92;100.00;99655.30;183204;1235;46185;-87
2024/03/12 05:04:22;;;;;;;83.90;52.90;;;;;;;8.88;100.00;99661.00;182811;1235;45976;-87
2024/03/12 05:08:25;;;;;;;85.20;57.20;;;;;;;8.85;100.00;99659.80;182998;1235;59198;-86
2024/03/12 05:12:26;;;;;;;94.90;61.20;;;;;;;8.85;100.00;99659.84;182497;1237;46006;-88
2024/03/12 05:16:29;;;;;;;85.20;55.00;;;;;;;8.84;100.00;99663.11;182894;1235;46142;-85
2024/03/12 05:20:33;;;;;;;95.50;60.00;;;;;;;8.78;100.00;99660.61;182666;1235;45903;-87
2024/03/12 05:24:35;;;;;;;82.90;56.70;;;;;;;8.78;100.00;99663.06;183219;1234;43992;-87
2024/03/12 05:28:38;;;;;;;97.30;59.30;;;;;;;8.77;100.00;99665.77;183253;1237;58295;-86
2024/03/12 05:32:43;;;;;;;91.50;61.00;;;;;;;8.73;100.00;99670.69;182701;1237;44127;-85
2024/03/12 05:36:48;;;;;;;89.20;55.40;;;;;;;8.69;100.00;99673.86;183279;1234;46079;-84
2024/03/12 05:49:30;;;;;;;98.70;59.40;;;;;;;8.43;100.00;99688.28;182734;1237;57761;-86
2024/03/12 05:53:32;;;;;;;95.50;61.50;;;;;;;8.36;100.00;99687.98;182873;1235;46002;-85
2024/03/12 05:57:33;;;;;;;107.40;67.90;;;;;;;8.33;100.00;99691.27;182908;1235;46008;-86
2024/03/12 06:01:36;;;;;;;111.60;67.40;;;;;;;8.32;100.00;99694.50;182519;1237;46159;-83
2024/03/12 06:05:38;;;;;;;115.20;68.60;;;;;;;8.29;100.00;99696.05;182646;1238;46079;-85
2024/03/12 06:09:39;;;;;;;100.80;56.60;;;;;;;8.22;100.00;99700.42;182670;1233;59269;-85
2024/03/12 06:13:43;;;;;;;108.80;68.40;;;;;;;8.21;100.00;99703.23;182683;1238;45985;-85
2024/03/12 06:17:46;;;;;;;99.30;65.10;;;;;;;8.25;100.00;99702.73;182681;1236;46104;-82
2024/03/12 06:21:48;;;;;;;101.40;63.20;;;;;;;8.26;100.00;99705.41;182172;1237;46119;-86
2024/03/12 06:25:49;;;;;;;97.20;61.10;;;;;;;8.27;100.00;99706.78;183139;1237;46104;-83
2024/03/12 06:29:52;;;;;;;100.40;60.30;;;;;;;8.32;100.00;99715.22;182437;1237;58091;-85
2024/03/12 06:33:54;;;;;;;104.00;68.60;;;;;;;8.31;100.00;99720.92;183599;1233;46015;-86
2024/03/12 06:37:58;;;;;;;99.50;63.70;;;;;;;8.35;100.00;99720.98;183181;1233;45968;-85
2024/03/12 06:42:07;;;;;;;95.40;64.60;;;;;;;8.37;100.00;99727.12;183007;1235;46069;-86
2024/03/12 06:46:09;;;;;;;94.80;63.20;;;;;;;8.34;100.00;99726.84;182854;1235;46105;-86
2024/03/12 06:50:11;;;;;;;109.10;69.30;;;;;;;8.31;100.00;99730.30;183978;1234;59422;-86
2024/03/12 06:54:13;;;;;;;97.10;63.50;;;;;;;8.35;100.00;99734.20;182629;1233;44107;-86
2024/03/12 06:58:18;;;;;;;111.90;62.00;;;;;;;8.38;100.00;99739.83;182628;1233;46143;-85
2024/03/12 07:02:22;;;;;;;100.20;65.40;;;;;;;8.30;100.00;99738.33;182893;1234;46111;-85
2024/03/12 07:06:24;;;;;;;102.40;63.70;;;;;;;8.34;100.00;99743.48;183006;1234;46012;-85
2024/03/12 07:10:26;;;;;;;97.10;61.10;;;;;;;8.33;100.00;99749.35;183204;1235;58139;-86
2024/03/12 07:14:30;;;;;;;100.00;65.60;;;;;;;8.31;100.00;99747.05;182943;1237;45943;-85
2024/03/12 07:18:32;;;;;;;110.60;66.10;;;;;;;8.31;100.00;99747.25;182906;1234;46021;-85
2024/03/12 07:22:36;;;;;;;86.40;56.80;;;;;;;8.35;100.00;99746.04;183234;1234;46563;-85
2024/03/12 07:26:38;;;;;;;108.70;68.50;;;;;;;8.36;100.00;99745.11;182834;1234;46085;-87
2024/03/12 07:30:40;;;;;;;88.80;54.30;;;;;;;8.33;100.00;99749.04;183233;1234;57892;-87
2024/03/12 07:34:42;;;;;;;92.30;60.00;;;;;;;8.31;100.00;99751.45;182293;1235;46361;-87
2024/03/12 07:38:44;;;;;;;110.70;64.40;;;;;;;8.35;100.00;99754.02;182763;1234;46081;-87
2024/03/12 07:42:45;;;;;;;107.40;69.00;;;;;;;8.40;100.00;99755.58;182909;1234;46104;-85
2024/03/12 07:46:48;;;;;;;103.50;68.60;;;;;;;8.47;100.00;99760.13;182209;1238;46043;-85
2024/03/12 07:50:50;;;;;;;106.60;64.50;;;;;;;8.55;100.00;99764.06;184361;1233;58191;-86
2024/03/12 07:54:52;;;;;;;108.00;68.90;;;;;;;8.56;100.00;99764.71;182796;1234;46016;-85
2024/03/12 07:58:56;;;;;;;91.90;59.30;;;;;;;8.62;100.00;99765.32;183086;1233;46057;-86
2024/03/12 08:02:58;;;;;;;96.70;63.60;;;;;;;8.70;100.00;99770.85;183020;1234;46215;-86
2024/03/12 08:07:01;;;;;;;113.90;67.60;;;;;;;8.78;100.00;99774.77;182615;1234;45970;-86
2024/03/12 08:11:04;;;;;;;93.90;63.50;;;;;;;8.86;100.00;99775.35;183315;1234;59725;-85
2024/03/12 11:01:09;;;;;;;44.90;35.90;;;;;;;11.90;100.00;99845.89;174086;1286;583356;-81
2024/03/12 11:05:12;;;;;;;48.70;35.40;;;;;;;12.38;100.00;99845.84;176618;1262;60768;-81
2024/03/12 11:09:21;;;;;;;40.20;32.30;;;;;;;12.44;100.00;99844.16;176405;1264;46059;-81
2024/03/12 11:13:23;;;;;;;45.80;30.20;;;;;;;12.54;100.00;99842.13;176271;1262;46089;-81
2024/03/12 11:17:27;;;;;;;40.00;29.70;;;;;;;12.52;100.00;99842.21;176503;1263;46098;-82
2024/03/12 11:21:34;;;;;;;35.30;26.60;;;;;;;12.66;100.00;99841.02;176436;1263;46047;-81
2024/03/12 11:25:39;;;;;;;34.50;26.60;;;;;;;12.66;100.00;99840.47;176136;1262;58139;-82
2024/03/12 11:30:18;;;;;;;35.90;24.90;;;;;;;12.72;99.66;99841.50;177055;1262;46120;-83
2024/03/12 11:34:35;;;;;;;37.70;27.80;;;;;;;12.83;99.94;99841.98;176533;1266;46099;-83
2024/03/12 11:38:37;;;;;;;38.20;27.20;;;;;;;13.07;97.87;99835.27;176446;1264;46047;-82
2024/03/12 11:42:40;;;;;;;33.80;26.60;;;;;;;13.20;96.80;99835.53;176679;1259;46009;-82
2024/03/12 11:46:44;;;;;;;26.90;18.80;;;;;;;13.34;93.64;99830.94;176574;1262;58007;-82
2024/03/12 11:50:55;;;;;;;27.50;21.40;;;;;;;13.42;88.98;99834.96;176910;1261;46085;-82
2024/03/12 11:54:58;;;;;;;24.90;18.50;;;;;;;13.50;87.84;99832.23;176652;1260;46101;-82
2024/03/12 11:59:02;;;;;;;29.80;21.90;;;;;;;13.50;85.37;99833.83;176338;1259;46040;-82
2024/03/12 12:03:11;;;;;;;21.90;17.60;;;;;;;13.44;85.88;99831.60;176388;1259;46095;-82
2024/03/12 12:07:15;;;;;;;19.50;15.30;;;;;;;13.40;84.71;99834.30;176422;1262;59372;-82
2024/03/12 12:11:17;;;;;;;20.90;15.70;;;;;;;13.38;83.44;99832.34;176498;1259;46147;-82
2024/03/12 12:15:19;;;;;;;17.50;13.00;;;;;;;13.28;82.25;99835.61;176872;1257;46213;-82
2024/03/12 12:19:22;;;;;;;20.30;15.00;;;;;;;13.21;84.60;99841.27;176677;1258;46104;-82
2024/03/12 12:23:35;;;;;;;21.60;14.70;;;;;;;13.16;81.74;99836.47;176675;1257;46123;-83
2024/03/12 12:27:38;;;;;;;18.60;14.10;;;;;;;13.20;81.90;99839.67;176746;1256;57967;-83
2024/03/12 12:31:41;;;;;;;17.10;14.00;;;;;;;13.22;81.40;99838.16;177946;1257;46057;-83
2024/03/12 12:35:45;;;;;;;16.50;13.90;;;;;;;13.21;79.66;99837.90;176854;1260;46105;-84
2024/03/12 12:39:50;;;;;;;17.50;13.60;;;;;;;13.24;81.94;99844.07;176870;1257;46217;-82
2024/03/12 12:43:56;;;;;;;;;;;;;;;13.33;85.71;99848.27;176855;1257;45971;-82
2024/03/12 12:48:01;;;;;;;21.20;18.20;;;;;;;13.33;81.90;99848.26;176777;1260;59121;-83
2024/03/12 12:52:03;;;;;;;16.90;11.00;;;;;;;13.33;82.31;99844.89;176716;1257;46079;-82
2024/03/12 12:56:08;;;;;;;16.10;10.80;;;;;;;13.30;79.44;99841.89;176678;1257;46076;-83
2024/03/12 13:00:23;;;;;;;12.90;11.00;;;;;;;13.28;78.44;99844.38;176878;1260;46021;-83
2024/03/12 13:04:26;;;;;;;16.10;11.70;;;;;;;13.17;78.90;99844.33;176731;1257;46005;-82
2024/03/12 13:08:31;;;;;;;15.00;12.30;;;;;;;13.11;79.17;99851.77;177102;1257;59230;-82
2024/03/12 13:12:33;;;;;;;17.40;12.80;;;;;;;13.16;81.00;99849.11;176652;1257;46083;-82
2024/03/12 13:16:39;;;;;;;15.30;10.90;;;;;;;13.16;80.31;99850.55;176853;1258;45981;-83
2024/03/12 13:20:42;;;;;;;14.80;11.00;;;;;;;13.21;78.17;99855.94;176784;1257;46220;-82
2024/03/12 13:24:43;;;;;;;12.90;11.40;;;;;;;13.29;78.20;99860.67;176863;1256;46070;-83
2024/03/12 13:28:48;;;;;;;12.00;9.80;;;;;;;13.28;77.10;99861.48;176976;1256;59519;-83
2024/03/12 13:32:51;;;;;;;14.20;11.10;;;;;;;13.28;77.92;99863.55;177527;1257;46174;-83
2024/03/12 13:36:52;;;;;;;12.70;10.30;;;;;;;13.22;77.77;99859.86;176904;1257;46073;-82
2024/03/12 13:40:55;;;;;;;10.60;9.50;;;;;;;13.18;78.07;99864.18;176778;1258;46080;-82
2024/03/12 13:44:58;;;;;;;16.40;13.10;;;;;;;13.19;79.12;99864.52;176488;1257;45963;-83
2024/03/12 13:49:12;;;;;;;11.90;9.50;;;;;;;13.14;78.94;99863.92;176975;1257;58149;-83
2024/03/12 13:53:15;;;;;;;11.70;10.20;;;;;;;13.04;77.41;99868.96;176840;1257;45967;-83
2024/03/12 13:57:17;;;;;;;12.40;9.30;;;;;;;12.97;79.67;99867.30;178419;1259;46146;-86
2024/03/12 14:01:19;;;;;;;14.90;11.60;;;;;;;12.84;79.79;99870.23;178279;1254;46031;-88
2024/03/12 14:05:20;;;;;;;11.20;10.10;;;;;;;12.69;83.34;99869.35;178731;1254;46093;-89
2024/03/12 14:09:25;;;;;;;16.40;12.10;;;;;;;12.51;83.53;99871.27;178803;1255;58087;-88
2024/03/12 14:13:27;;;;;;;16.20;12.30;;;;;;;12.37;83.89;99875.77;180839;1255;44380;-89
2024/03/12 14:17:29;;;;;;;16.80;13.30;;;;;;;12.35;85.43;99877.19;180540;1254;44123;-82
2024/03/12 14:21:31;;;;;;;17.40;13.70;;;;;;;12.31;87.77;99881.14;179838;1254;45946;-87
2024/03/12 14:25:38;;;;;;;12.90;11.30;;;;;;;12.28;86.42;99877.20;179587;1254;46049;-85
2024/03/12 14:29:41;;;;;;;19.50;14.70;;;;;;;12.26;86.60;99878.59;179964;1255;58158;-88
2024/03/12 14:33:42;;;;;;;18.40;14.50;;;;;;;12.27;87.98;99882.29;179639;1255;46010;-88
2024/03/12 14:37:46;;;;;;;16.70;14.50;;;;;;;12.22;89.19;99880.02;179822;1256;45085;-89
2024/03/12 14:41:50;;;;;;;21.60;16.40;;;;;;;12.23;90.88;99881.57;180022;1254;44208;-87
2024/03/12 14:45:55;;;;;;;20.80;14.70;;;;;;;12.22;89.66;99884.33;179680;1258;45945;-88
2024/03/12 14:49:57;;;;;;;17.60;13.00;;;;;;;12.28;88.55;99887.64;179203;1257;58104;-87
2024/03/12 14:54:00;;;;;;;20.00;14.70;;;;;;;12.31;86.90;99887.34;179454;1255;46009;-85
2024/03/12 14:58:03;;;;;;;22.20;14.80;;;;;;;12.39;88.94;99891.21;179184;1257;45250;-88
2024/03/12 15:02:05;;;;;;;17.30;13.70;;;;;;;12.48;88.76;99885.59;178695;1255;45990;-88
2024/03/12 15:06:09;;;;;;;16.40;13.20;;;;;;;12.49;86.95;99887.86;178744;1257;44438;-86
2024/03/12 15:10:12;;;;;;;17.90;13.30;;;;;;;12.54;88.25;99887.17;179039;1256;58665;-88
2024/03/12 15:14:15;;;;;;;20.00;15.60;;;;;;;12.57;88.72;99892.17;179587;1254;46114;-87
2024/03/12 15:18:17;;;;;;;21.60;16.10;;;;;;;12.65;91.31;99892.66;178735;1256;45933;-87
2024/03/12 15:22:21;;;;;;;22.20;14.90;;;;;;;12.71;92.09;99893.32;180376;1254;44229;-83
2024/03/12 15:26:23;;;;;;;19.50;15.20;;;;;;;12.77;92.26;99895.96;181425;1254;43624;-86
2024/03/12 15:30:25;;;;;;;20.10;15.60;;;;;;;12.81;91.85;99892.34;179279;1255;58756;-87
2024/03/12 15:34:28;;;;;;;20.70;14.30;;;;;;;12.81;91.39;99899.48;179014;1254;46035;-86
2024/03/12 15:38:30;;;;;;;20.20;15.20;;;;;;;12.83;91.79;99898.39;178728;1256;46044;-88
2024/03/12 15:42:33;;;;;;;23.60;13.80;;;;;;;12.90;93.00;99905.08;179459;1255;44794;-88
2024/03/12 15:46:35;;;;;;;17.20;14.10;;;;;;;12.93;93.39;99907.80;178612;1256;46022;-86
2024/03/12 15:50:38;;;;;;;19.40;14.90;;;;;;;12.97;92.08;99909.02;179386;1254;59711;-84
2024/03/12 15:54:40;;;;;;;17.00;12.00;;;;;;;12.97;89.67;99914.69;178853;1254;45999;-86
2024/03/12 15:58:45;;;;;;;16.40;12.90;;;;;;;12.93;88.06;99918.61;178880;1254;46075;-84
2024/03/12 16:02:47;;;;;;;19.00;11.10;;;;;;;12.87;86.06;99921.39;178808;1256;46210;-84
2024/03/12 16:06:49;;;;;;;18.10;12.70;;;;;;;12.85;88.59;99920.98;179152;1256;46150;-86
2024/03/12 16:10:51;;;;;;;17.70;13.20;;;;;;;12.82;89.94;99924.30;178526;1254;58228;-86
2024/03/12 16:14:53;;;;;;;16.60;12.00;;;;;;;12.81;91.24;99926.40;178496;1253;46085;-87
2024/03/12 16:18:55;;;;;;;16.00;11.30;;;;;;;12.78;91.11;99924.50;178409;1257;45836;-86
2024/03/12 16:22:57;;;;;;;14.90;11.40;;;;;;;12.75;90.70;99931.19;178075;1253;45964;-83
2024/03/12 16:26:59;;;;;;;14.80;12.10;;;;;;;12.68;89.93;99933.95;178875;1253;46467;-86
2024/03/12 16:31:01;;;;;;;16.20;11.00;;;;;;;12.63;90.31;99940.05;178298;1253;58481;-87
2024/03/12 16:35:09;;;;;;;14.40;12.50;;;;;;;12.54;90.97;99943.21;178093;1253;45968;-87
2024/03/12 16:39:13;;;;;;;16.30;11.90;;;;;;;12.39;91.18;99945.45;177922;1253;45943;-83
2024/03/12 16:43:16;;;;;;;13.40;10.90;;;;;;;12.23;91.43;99947.90;178245;1253;46118;-85
2024/03/12 16:47:18;;;;;;;13.80;10.40;;;;;;;12.13;92.27;99951.27;178731;1257;46117;-86
2024/03/12 16:51:20;;;;;;;18.00;13.00;;;;;;;12.07;94.34;99958.63;179091;1253;59629;-86
2024/03/12 16:55:22;;;;;;;17.90;12.70;;;;;;;12.06;96.78;99956.02;178798;1253;45916;-86
2024/03/12 16:59:24;;;;;;;16.60;12.60;;;;;;;12.07;98.58;99954.86;178903;1254;46031;-87
2024/03/12 17:03:29;;;;;;;17.70;13.40;;;;;;;12.05;96.71;99960.23;178331;1254;46092;-88
2024/03/12 17:07:33;;;;;;;20.00;13.80;;;;;;;11.95;94.38;99963.95;178660;1253;46069;-86
2024/03/12 17:11:36;;;;;;;20.60;14.00;;;;;;;11.88;93.62;99963.17;178822;1254;58077;-85
2024/03/12 17:15:39;;;;;;;19.90;12.90;;;;;;;11.81;92.87;99964.54;178523;1253;46073;-86
2024/03/12 17:19:43;;;;;;;15.40;13.80;;;;;;;11.77;93.04;99969.99;178773;1253;44177;-85
2024/03/12 17:23:45;;;;;;;25.20;14.60;;;;;;;11.75;93.11;99972.86;178284;1253;45931;-86
2024/03/12 17:27:48;;;;;;;20.90;14.70;;;;;;;11.73;93.95;99977.10;178325;1253;45951;-86
2024/03/12 17:31:51;;;;;;;26.30;19.00;;;;;;;11.70;94.87;99980.95;178556;1253;59404;-87
2024/03/12 17:35:54;;;;;;;34.70;20.20;;;;;;;11.66;95.69;99982.41;178150;1254;46055;-87
2024/03/12 17:40:00;;;;;;;31.00;20.20;;;;;;;11.63;96.28;99986.92;178218;1253;46088;-85
2024/03/12 17:44:02;;;;;;;38.60;25.20;;;;;;;11.63;97.28;99985.88;178102;1258;46060;-85
2024/03/12 17:48:08;;;;;;;32.40;22.10;;;;;;;11.66;98.29;99986.84;177973;1253;45978;-85
2024/03/12 17:52:10;;;;;;;32.90;20.80;;;;;;;11.66;98.81;99988.08;177802;1253;57442;-85
2024/03/12 17:56:14;;;;;;;28.00;18.10;;;;;;;11.58;98.53;99990.74;177988;1253;46092;-84
2024/03/12 18:00:18;;;;;;;25.10;18.00;;;;;;;11.48;97.18;99990.61;177926;1256;46095;-85
2024/03/12 18:04:20;;;;;;;28.10;18.90;;;;;;;11.39;95.46;99989.98;180128;1253;44983;-83
2024/03/12 18:08:24;;;;;;;30.20;18.90;;;;;;;11.35;94.53;99991.41;181396;1256;43599;-84
2024/03/12 18:12:26;;;;;;;26.50;17.20;;;;;;;11.31;94.18;99994.97;178127;1253;58011;-86
2024/03/12 18:16:28;;;;;;;24.70;15.20;;;;;;;11.27;94.09;99996.11;178147;1254;45330;-85
2024/03/12 18:20:29;;;;;;;22.00;15.60;;;;;;;11.24;94.05;99997.88;178529;1253;45971;-84
2024/03/12 18:24:31;;;;;;;21.10;15.50;;;;;;;11.23;94.26;99996.69;178807;1253;46069;-83
2024/03/12 18:28:35;;;;;;;17.40;13.90;;;;;;;11.21;94.27;99996.85;178329;1253;45963;-84
2024/03/12 18:32:38;;;;;;;24.20;14.30;;;;;;;11.19;94.21;100000.92;178985;1255;58246;-86
2024/03/12 18:36:39;;;;;;;28.30;17.10;;;;;;;11.19;94.20;100002.14;178785;1253;46198;-83
2024/03/12 18:40:42;;;;;;;25.30;15.70;;;;;;;11.18;94.40;100005.86;179411;1253;46147;-81
2024/03/12 18:44:43;;;;;;;18.70;15.40;;;;;;;11.17;95.49;100008.62;178922;1253;46105;-84
2024/03/12 18:48:45;;;;;;;25.30;18.80;;;;;;;11.19;97.30;100010.34;178613;1253;46046;-83
2024/03/12 18:52:48;;;;;;;26.90;16.50;;;;;;;11.23;99.20;100016.92;179046;1253;58295;-83
2024/03/12 18:56:50;;;;;;;23.50;20.30;;;;;;;11.27;100.00;100021.52;178238;1253;46046;-84
2024/03/12 19:00:53;;;;;;;22.20;15.70;;;;;;;11.30;100.00;100021.50;177912;1253;45882;-84
2024/03/12 19:05:07;;;;;;;23.30;15.70;;;;;;;11.33;100.00;100025.88;178475;1256;46050;-84
2024/03/12 19:09:10;;;;;;;27.40;20.90;;;;;;;11.34;100.00;100029.45;178848;1253;45936;-83
2024/03/12 19:13:12;;;;;;;25.00;20.10;;;;;;;11.29;100.00;100034.85;177799;1254;59975;-84
2024/03/12 19:17:17;;;;;;;23.60;19.00;;;;;;;11.20;100.00;100039.79;178229;1253;46107;-84
2024/03/12 19:21:19;;;;;;;21.00;17.60;;;;;;;11.05;100.00;100044.08;179518;1253;46107;-85
2024/03/12 19:25:22;;;;;;;26.70;19.30;;;;;;;10.90;100.00;100046.41;178755;1253;46063;-84
2024/03/12 19:29:24;;;;;;;30.50;20.50;;;;;;;10.81;100.00;100044.53;178648;1253;45517;-85
2024/03/12 19:33:33;;;;;;;35.60;25.10;;;;;;;10.78;100.00;100052.27;179068;1253;58052;-84
2024/03/12 19:37:36;;;;;;;40.90;26.40;;;;;;;10.75;100.00;100058.33;178616;1253;46088;-84
2024/03/12 19:41:44;;;;;;;39.60;23.70;;;;;;;10.74;100.00;100063.95;178345;1256;46053;-84
2024/03/12 19:45:46;;;;;;;29.30;22.80;;;;;;;10.70;100.00;100067.27;178317;1257;46082;-83
2024/03/12 19:49:48;;;;;;;36.30;25.40;;;;;;;10.68;100.00;100066.91;178183;1253;45960;-84
2024/03/12 19:53:51;;;;;;;40.60;27.60;;;;;;;10.65;100.00;100070.40;178161;1254;59190;-84
2024/03/12 19:57:54;;;;;;;39.80;27.10;;;;;;;10.65;100.00;100069.48;178647;1256;45971;-84
2024/03/12 20:01:56;;;;;;;36.60;22.60;;;;;;;10.66;100.00;100071.33;178183;1254;46089;-84
2024/03/12 20:05:59;;;;;;;30.60;23.40;;;;;;;10.60;100.00;100066.37;179031;1253;46352;-84
2024/03/12 20:10:07;;;;;;;23.00;16.60;;;;;;;10.55;100.00;100070.67;179051;1253;46064;-83
2024/03/12 20:14:09;;;;;;;21.50;16.70;;;;;;;10.49;100.00;100075.46;178812;1253;58126;-84
2024/03/12 20:18:11;;;;;;;23.80;15.30;;;;;;;10.55;96.69;100078.52;178195;1253;46122;-84
2024/03/12 20:22:13;;;;;;;22.50;17.70;;;;;;;10.65;96.07;100079.63;179688;1254;46094;-84
2024/03/12 20:26:16;;;;;;;23.60;17.40;;;;;;;10.66;99.09;100084.16;178540;1253;45863;-84
2024/03/12 20:30:19;;;;;;;23.90;16.10;;;;;;;10.60;100.00;100085.52;178252;1253;46082;-83
2024/03/12 20:34:24;;;;;;;21.40;16.80;;;;;;;10.45;100.00;100087.50;179824;1253;58076;-81
2024/03/12 20:38:28;;;;;;;24.90;17.50;;;;;;;10.32;100.00;100092.96;181348;1253;44087;-81
2024/03/12 20:42:30;;;;;;;29.90;19.50;;;;;;;10.24;100.00;100093.84;178140;1253;44863;-84
2024/03/12 20:46:37;;;;;;;20.60;15.70;;;;;;;10.20;100.00;100093.40;178261;1257;45948;-84
2024/03/12 20:50:41;;;;;;;18.70;12.90;;;;;;;10.21;100.00;100095.98;178695;1253;46090;-83
2024/03/12 20:54:43;;;;;;;16.40;13.40;;;;;;;10.23;100.00;100091.94;178055;1258;58244;-85
2024/03/12 20:58:45;;;;;;;16.80;12.30;;;;;;;10.27;100.00;100095.99;178117;1253;46270;-83
2024/03/12 21:02:47;;;;;;;15.40;11.30;;;;;;;10.33;100.00;100097.19;179463;1253;46417;-83
2024/03/12 21:06:49;;;;;;;15.30;12.40;;;;;;;10.36;100.00;100096.15;178797;1257;45994;-84
2024/03/12 21:10:50;;;;;;;13.90;12.40;;;;;;;10.40;100.00;100095.50;178200;1258;46123;-85
2024/03/12 21:14:52;;;;;;;18.10;12.30;;;;;;;10.41;99.90;100096.46;178520;1258;59378;-84